sensor_id;sensor_type;location;lat;lon;timestamp;pressure;altitude;pressure_sealevel;temperature;humidity
3096;BME280;1558;42.700;23.360;2023-04-02T00:02:28;94437.44;;;8.31;100.00
3096;BME280;1558;42.700;23.360;2023-04-02T00:05:27;94441.78;;;8.36;100.00
3096;BME280;1558;42.700;23.360;2023-04-02T00:07:59;94435.41;;;8.40;100.00
3096;BME280;1558;42.700;23.360;2023-04-02T00:10:30;94439.16;;;8.51;100.00
3096;BME280;1558;42.700;23.360;2023-04-02T00:13:04;94445.91;;;8.57;100.00
3096;BME280;1558;42.700;23.360;2023-04-02T00:15:33;94442.53;;;8.60;100.00
3096;BME280;1558;42.700;23.360;2023-04-02T00:18:03;94432.03;;;8.55;100.00
3096;BME280;1558;42.700;23.360;2023-04-02T00:20:35;94440.97;;;8.59;100.00
3096;BME280;1558;42.700;23.360;2023-04-02T00:23:11;94442.81;;;8.71;100.00
3096;BME280;1558;42.700;23.360;2023-04-02T00:25:43;94451.59;;;8.56;100.00
3096;BME280;1558;42.700;23.360;2023-04-02T00:28:13;94446.13;;;7.92;100.00
3096;BME280;1558;42.700;23.360;2023-04-02T00:30:46;94449.44;;;7.08;100.00
3096;BME280;1558;42.700;23.360;2023-04-02T00:33:16;94440.66;;;6.66;100.00
3096;BME280;1558;42.700;23.360;2023-04-02T00:35:46;94444.13;;;6.46;100.00
3096;BME280;1558;42.700;23.360;2023-04-02T00:38:20;94440.72;;;6.37;100.00
3096;BME280;1558;42.700;23.360;2023-04-02T00:40:50;94442.66;;;6.28;100.00
3096;BME280;1558;42.700;23.360;2023-04-02T00:43:19;94419.50;;;6.02;100.00
3096;BME280;1558;42.700;23.360;2023-04-02T00:45:53;94442.97;;;6.26;100.00
3096;BME280;1558;42.700;23.360;2023-04-02T00:48:38;94444.88;;;6.26;100.00
3096;BME280;1558;42.700;23.360;2023-04-02T00:51:13;94448.00;;;6.28;100.00
3096;BME280;1558;42.700;23.360;2023-04-02T00:53:45;94440.19;;;6.23;100.00
3096;BME280;1558;42.700;23.360;2023-04-02T00:56:18;94447.28;;;6.19;100.00
3096;BME280;1558;42.700;23.360;2023-04-02T00:58:51;94443.69;;;6.14;100.00
3096;BME280;1558;42.700;23.360;2023-04-02T01:01:23;94435.19;;;6.12;100.00
3096;BME280;1558;42.700;23.360;2023-04-02T01:03:55;94439.16;;;6.06;100.00
3096;BME280;1558;42.700;23.360;2023-04-02T01:06:25;94450.34;;;6.08;100.00
3096;BME280;1558;42.700;23.360;2023-04-02T01:09:08;94454.91;;;6.08;100.00
3096;BME280;1558;42.700;23.360;2023-04-02T01:11:54;94452.41;;;6.03;100.00
3096;BME280;1558;42.700;23.360;2023-04-02T01:14:35;94448.34;;;5.97;100.00
3096;BME280;1558;42.700;23.360;2023-04-02T01:17:17;94437.84;;;5.92;100.00
3096;BME280;1558;42.700;23.360;2023-04-02T01:20:29;94440.13;;;6.02;100.00
3096;BME280;1558;42.700;23.360;2023-04-02T01:23:08;94392.41;;;5.75;100.00
3096;BME280;1558;42.700;23.360;2023-04-02T01:25:43;94451.25;;;6.12;100.00
3096;BME280;1558;42.700;23.360;2023-04-02T01:28:17;94435.72;;;6.06;100.00
3096;BME280;1558;42.700;23.360;2023-04-02T01:30:51;94452.91;;;6.26;100.00
3096;BME280;1558;42.700;23.360;2023-04-02T01:33:21;94458.25;;;6.26;100.00
3096;BME280;1558;42.700;23.360;2023-04-02T01:35:54;94462.06;;;6.25;100.00
3096;BME280;1558;42.700;23.360;2023-04-02T01:38:27;94465.38;;;6.22;100.00
3096;BME280;1558;42.700;23.360;2023-04-02T01:41:04;94458.78;;;6.19;100.00
3096;BME280;1558;42.700;23.360;2023-04-02T01:43:38;94459.13;;;6.18;100.00
3096;BME280;1558;42.700;23.360;2023-04-02T01:46:24;94459.13;;;6.18;100.00
3096;BME280;1558;42.700;23.360;2023-04-02T01:48:52;94453.31;;;6.16;100.00
3096;BME280;1558;42.700;23.360;2023-04-02T01:51:28;94457.34;;;6.22;100.00
3096;BME280;1558;42.700;23.360;2023-04-02T01:53:58;94448.00;;;6.28;100.00
3096;BME280;1558;42.700;23.360;2023-04-02T01:56:28;94380.41;;;5.89;100.00
3096;BME280;1558;42.700;23.360;2023-04-02T01:58:57;94455.09;;;6.32;100.00
3096;BME280;1558;42.700;23.360;2023-04-02T02:01:31;94439.34;;;6.31;100.00
3096;BME280;1558;42.700;23.360;2023-04-02T02:04:03;94450.00;;;6.39;100.00
3096;BME280;1558;42.700;23.360;2023-04-02T02:06:31;94450.75;;;6.40;100.00
3096;BME280;1558;42.700;23.360;2023-04-02T02:09:01;94429.06;;;6.33;100.00
3096;BME280;1558;42.700;23.360;2023-04-02T02:11:31;94436.53;;;6.48;100.00
3096;BME280;1558;42.700;23.360;2023-04-02T02:14:08;94443.47;;;6.49;100.00
3096;BME280;1558;42.700;23.360;2023-04-02T02:16:41;94445.94;;;6.54;100.00
3096;BME280;1558;42.700;23.360;2023-04-02T02:19:18;94443.25;;;6.54;100.00
3096;BME280;1558;42.700;23.360;2023-04-02T02:21:51;94404.53;;;6.31;100.00
3096;BME280;1558;42.700;23.360;2023-04-02T02:24:22;94440.84;;;6.61;100.00
3096;BME280;1558;42.700;23.360;2023-04-02T02:27:00;94439.09;;;6.65;100.00
3096;BME280;1558;42.700;23.360;2023-04-02T02:29:34;94412.44;;;6.48;100.00
3096;BME280;1558;42.700;23.360;2023-04-02T02:32:06;94455.09;;;6.73;100.00
3096;BME280;1558;42.700;23.360;2023-04-02T02:34:39;94456.25;;;6.64;100.00
3096;BME280;1558;42.700;23.360;2023-04-02T02:37:12;94437.25;;;6.57;100.00
3096;BME280;1558;42.700;23.360;2023-04-02T02:39:43;94463.59;;;6.55;100.00
3096;BME280;1558;42.700;23.360;2023-04-02T02:42:15;94451.25;;;6.42;100.00
3096;BME280;1558;42.700;23.360;2023-04-02T02:44:48;94453.25;;;6.24;100.00
3096;BME280;1558;42.700;23.360;2023-04-02T02:47:23;94448.63;;;6.04;100.00
3096;BME280;1558;42.700;23.360;2023-04-02T02:49:56;94438.03;;;5.87;100.00
3096;BME280;1558;42.700;23.360;2023-04-02T02:52:29;94449.34;;;5.84;100.00
3096;BME280;1558;42.700;23.360;2023-04-02T02:55:00;94463.22;;;5.86;100.00
3096;BME280;1558;42.700;23.360;2023-04-02T02:57:32;94460.38;;;5.82;100.00
3096;BME280;1558;42.700;23.360;2023-04-02T03:00:04;94464.59;;;5.83;100.00
3096;BME280;1558;42.700;23.360;2023-04-02T03:02:39;94461.47;;;5.81;100.00
3096;BME280;1558;42.700;23.360;2023-04-02T03:05:09;94460.56;;;5.77;100.00
3096;BME280;1558;42.700;23.360;2023-04-02T03:07:45;94464.16;;;5.81;100.00
3096;BME280;1558;42.700;23.360;2023-04-02T03:10:15;94454.69;;;5.84;100.00
3096;BME280;1558;42.700;23.360;2023-04-02T03:12:50;94455.78;;;5.91;100.00
3096;BME280;1558;42.700;23.360;2023-04-02T03:15:24;94459.38;;;5.95;100.00
3096;BME280;1558;42.700;23.360;2023-04-02T03:17:58;94461.31;;;5.86;100.00
3096;BME280;1558;42.700;23.360;2023-04-02T03:20:33;94465.53;;;5.87;100.00
3096;BME280;1558;42.700;23.360;2023-04-02T03:23:06;94473.59;;;5.79;100.00
3096;BME280;1558;42.700;23.360;2023-04-02T03:25:38;94475.19;;;5.71;100.00
3096;BME280;1558;42.700;23.360;2023-04-02T03:28:12;94474.59;;;5.66;100.00
3096;BME280;1558;42.700;23.360;2023-04-02T03:30:45;94473.06;;;5.47;100.00
3096;BME280;1558;42.700;23.360;2023-04-02T03:33:20;94475.31;;;5.28;100.00
3096;BME280;1558;42.700;23.360;2023-04-02T03:35:54;94475.47;;;5.32;100.00
3096;BME280;1558;42.700;23.360;2023-04-02T03:38:27;94469.97;;;5.37;100.00
3096;BME280;1558;42.700;23.360;2023-04-02T03:41:03;94474.50;;;5.45;100.00
3096;BME280;1558;42.700;23.360;2023-04-02T03:43:38;94473.81;;;5.57;100.00
3096;BME280;1558;42.700;23.360;2023-04-02T03:46:17;94486.53;;;5.68;100.00
3096;BME280;1558;42.700;23.360;2023-04-02T03:48:52;94480.53;;;5.71;100.00
3096;BME280;1558;42.700;23.360;2023-04-02T03:51:25;94457.47;;;5.58;100.00
3096;BME280;1558;42.700;23.360;2023-04-02T03:53:54;94477.75;;;5.68;100.00
3096;BME280;1558;42.700;23.360;2023-04-02T03:56:27;94471.59;;;5.67;100.00
3096;BME280;1558;42.700;23.360;2023-04-02T03:59:04;94478.78;;;5.75;100.00
3096;BME280;1558;42.700;23.360;2023-04-02T04:01:36;94472.16;;;5.81;100.00
3096;BME280;1558;42.700;23.360;2023-04-02T04:04:13;94415.66;;;5.45;100.00
3096;BME280;1558;42.700;23.360;2023-04-02T04:06:44;94475.94;;;5.80;100.00
3096;BME280;1558;42.700;23.360;2023-04-02T04:09:19;94488.28;;;5.64;100.00
3096;BME280;1558;42.700;23.360;2023-04-02T04:11:52;94488.91;;;5.61;100.00
3096;BME280;1558;42.700;23.360;2023-04-02T04:14:27;94493.00;;;5.67;100.00
3096;BME280;1558;42.700;23.360;2023-04-02T04:17:00;94497.66;;;5.87;100.00
3096;BME280;1558;42.700;23.360;2023-04-02T04:19:37;94489.31;;;5.89;100.00
3096;BME280;1558;42.700;23.360;2023-04-02T04:22:14;94499.56;;;5.87;100.00
3096;BME280;1558;42.700;23.360;2023-04-02T04:24:44;94444.00;;;5.46;100.00
3096;BME280;1558;42.700;23.360;2023-04-02T04:27:18;94509.34;;;5.74;100.00
3096;BME280;1558;42.700;23.360;2023-04-02T04:29:54;94505.53;;;5.75;100.00
3096;BME280;1558;42.700;23.360;2023-04-02T04:32:27;94504.63;;;5.71;100.00
3096;BME280;1558;42.700;23.360;2023-04-02T04:35:04;94489.19;;;5.68;100.00
3096;BME280;1558;42.700;23.360;2023-04-02T04:37:37;94498.97;;;5.64;100.00
3096;BME280;1558;42.700;23.360;2023-04-02T04:40:12;94506.66;;;5.74;100.00
3096;BME280;1558;42.700;23.360;2023-04-02T04:42:44;94496.72;;;5.83;100.00
3096;BME280;1558;42.700;23.360;2023-04-02T04:45:28;94508.00;;;5.97;100.00
3096;BME280;1558;42.700;23.360;2023-04-02T04:48:19;94511.69;;;6.72;100.00
3096;BME280;1558;42.700;23.360;2023-04-02T04:50:53;94493.47;;;6.86;100.00
3096;BME280;1558;42.700;23.360;2023-04-02T04:53:24;94508.06;;;7.63;100.00
3096;BME280;1558;42.700;23.360;2023-04-02T04:55:54;94486.41;;;8.04;100.00
3096;BME280;1558;42.700;23.360;2023-04-02T04:58:47;94510.72;;;9.20;100.00
3096;BME280;1558;42.700;23.360;2023-04-02T05:01:20;94522.34;;;9.79;100.00
3096;BME280;1558;42.700;23.360;2023-04-02T05:03:56;94515.75;;;9.92;100.00
3096;BME280;1558;42.700;23.360;2023-04-02T05:06:38;94515.94;;;10.15;100.00
3096;BME280;1558;42.700;23.360;2023-04-02T05:09:15;94510.66;;;10.18;100.00
3096;BME280;1558;42.700;23.360;2023-04-02T05:11:46;94452.66;;;9.62;100.00
3096;BME280;1558;42.700;23.360;2023-04-02T05:14:24;94512.97;;;10.67;100.00
3096;BME280;1558;42.700;23.360;2023-04-02T05:16:59;94509.50;;;11.20;100.00
3096;BME280;1558;42.700;23.360;2023-04-02T05:19:37;94505.19;;;11.73;100.00
3096;BME280;1558;42.700;23.360;2023-04-02T05:22:20;94491.94;;;12.10;93.88
3096;BME280;1558;42.700;23.360;2023-04-02T05:24:57;94515.13;;;12.11;88.30
3096;BME280;1558;42.700;23.360;2023-04-02T05:27:35;94521.38;;;12.15;88.39
3096;BME280;1558;42.700;23.360;2023-04-02T05:30:12;94513.88;;;12.50;85.61
3096;BME280;1558;42.700;23.360;2023-04-02T05:32:48;94514.22;;;12.98;82.79
3096;BME280;1558;42.700;23.360;2023-04-02T05:35:19;94527.53;;;13.36;79.36
3096;BME280;1558;42.700;23.360;2023-04-02T05:37:52;94520.06;;;13.29;75.25
3096;BME280;1558;42.700;23.360;2023-04-02T05:40:23;94527.19;;;13.41;74.05
3096;BME280;1558;42.700;23.360;2023-04-02T05:42:54;94518.34;;;12.91;73.04
3096;BME280;1558;42.700;23.360;2023-04-02T05:45:29;94523.00;;;13.17;73.73
3096;BME280;1558;42.700;23.360;2023-04-02T05:48:01;94516.72;;;13.69;72.12
3096;BME280;1558;42.700;23.360;2023-04-02T05:50:34;94530.00;;;13.81;68.56
3096;BME280;1558;42.700;23.360;2023-04-02T05:53:08;94536.03;;;14.01;69.33
3096;BME280;1558;42.700;23.360;2023-04-02T05:55:49;94541.53;;;14.08;67.52
3096;BME280;1558;42.700;23.360;2023-04-02T05:58:24;94540.72;;;14.07;65.55
3096;BME280;1558;42.700;23.360;2023-04-02T06:01:09;94528.94;;;13.89;65.15
3096;BME280;1558;42.700;23.360;2023-04-02T06:03:45;94538.94;;;13.52;64.03
3096;BME280;1558;42.700;23.360;2023-04-02T06:06:24;94539.91;;;12.84;67.00
3096;BME280;1558;42.700;23.360;2023-04-02T06:09:00;94538.16;;;13.22;67.35
3096;BME280;1558;42.700;23.360;2023-04-02T06:11:35;94540.59;;;13.30;67.85
3096;BME280;1558;42.700;23.360;2023-04-02T06:14:09;94538.06;;;14.11;66.61
3096;BME280;1558;42.700;23.360;2023-04-02T06:16:39;94540.94;;;14.65;64.34
3096;BME280;1558;42.700;23.360;2023-04-02T06:19:15;94540.41;;;14.49;61.87
3096;BME280;1558;42.700;23.360;2023-04-02T06:21:47;94552.34;;;14.04;62.54
3096;BME280;1558;42.700;23.360;2023-04-02T06:24:21;94542.94;;;14.32;62.39
3096;BME280;1558;42.700;23.360;2023-04-02T06:26:53;94491.63;;;13.76;62.37
3096;BME280;1558;42.700;23.360;2023-04-02T06:29:27;94544.88;;;13.94;62.09
3096;BME280;1558;42.700;23.360;2023-04-02T06:32:00;94536.63;;;14.20;62.33
3096;BME280;1558;42.700;23.360;2023-04-02T06:34:30;94544.72;;;14.54;62.50
3096;BME280;1558;42.700;23.360;2023-04-02T06:37:00;94537.03;;;15.14;61.88
3096;BME280;1558;42.700;23.360;2023-04-02T06:39:31;94535.06;;;15.11;60.35
3096;BME280;1558;42.700;23.360;2023-04-02T06:42:01;94514.44;;;14.99;60.41
3096;BME280;1558;42.700;23.360;2023-04-02T06:44:33;94536.66;;;15.94;60.69
3096;BME280;1558;42.700;23.360;2023-04-02T06:47:06;94537.81;;;15.93;57.88
3096;BME280;1558;42.700;23.360;2023-04-02T06:49:41;94545.94;;;15.76;58.12
3096;BME280;1558;42.700;23.360;2023-04-02T06:52:14;94550.69;;;15.28;57.81
3096;BME280;1558;42.700;23.360;2023-04-02T06:54:48;94509.47;;;15.15;59.16
3096;BME280;1558;42.700;23.360;2023-04-02T06:57:17;94549.44;;;15.80;58.56
3096;BME280;1558;42.700;23.360;2023-04-02T06:59:45;94438.88;;;15.22;57.24
3096;BME280;1558;42.700;23.360;2023-04-02T07:02:24;94555.94;;;15.00;58.68
3096;BME280;1558;42.700;23.360;2023-04-02T07:04:59;94553.34;;;15.93;57.96
3096;BME280;1558;42.700;23.360;2023-04-02T07:07:27;94556.53;;;16.09;56.79
3096;BME280;1558;42.700;23.360;2023-04-02T07:09:57;94560.88;;;16.35;57.13
3096;BME280;1558;42.700;23.360;2023-04-02T07:12:25;94555.44;;;16.38;55.80
3096;BME280;1558;42.700;23.360;2023-04-02T07:14:53;94563.66;;;16.66;55.18
3096;BME280;1558;42.700;23.360;2023-04-02T07:17:21;94555.91;;;16.61;54.74
3096;BME280;1558;42.700;23.360;2023-04-02T07:19:49;94524.34;;;16.39;55.97
3096;BME280;1558;42.700;23.360;2023-04-02T07:22:17;94562.91;;;16.76;54.98
3096;BME280;1558;42.700;23.360;2023-04-02T07:24:48;94513.88;;;16.62;55.01
3096;BME280;1558;42.700;23.360;2023-04-02T07:27:18;94575.38;;;16.84;54.11
3096;BME280;1558;42.700;23.360;2023-04-02T07:29:47;94533.31;;;17.17;53.41
3096;BME280;1558;42.700;23.360;2023-04-02T07:32:14;94570.25;;;17.43;51.85
3096;BME280;1558;42.700;23.360;2023-04-02T07:34:45;94569.78;;;17.87;52.75
3096;BME280;1558;42.700;23.360;2023-04-02T07:37:14;94550.94;;;18.17;50.98
3096;BME280;1558;42.700;23.360;2023-04-02T07:39:42;94565.56;;;18.55;50.29
3096;BME280;1558;42.700;23.360;2023-04-02T07:42:10;94563.13;;;18.71;49.29
3096;BME280;1558;42.700;23.360;2023-04-02T07:44:42;94560.97;;;18.38;48.73
3096;BME280;1558;42.700;23.360;2023-04-02T07:47:10;94577.41;;;18.27;49.01
3096;BME280;1558;42.700;23.360;2023-04-02T07:49:38;94566.25;;;18.73;49.37
3096;BME280;1558;42.700;23.360;2023-04-02T07:52:06;94568.88;;;18.87;47.34
3096;BME280;1558;42.700;23.360;2023-04-02T07:54:34;94564.84;;;19.02;47.52
3096;BME280;1558;42.700;23.360;2023-04-02T07:57:03;94562.25;;;19.73;46.15
3096;BME280;1558;42.700;23.360;2023-04-02T07:59:32;94549.16;;;19.10;44.41
3096;BME280;1558;42.700;23.360;2023-04-02T08:02:02;94562.22;;;18.88;44.76
3096;BME280;1558;42.700;23.360;2023-04-02T08:04:30;94566.69;;;18.68;45.09
3096;BME280;1558;42.700;23.360;2023-04-02T08:07:01;94565.91;;;18.64;46.11
3096;BME280;1558;42.700;23.360;2023-04-02T08:09:29;94555.84;;;18.50;45.15
3096;BME280;1558;42.700;23.360;2023-04-02T08:11:57;94572.47;;;18.77;45.71
3096;BME280;1558;42.700;23.360;2023-04-02T08:14:25;94574.91;;;19.60;43.95
3096;BME280;1558;42.700;23.360;2023-04-02T08:16:54;94580.63;;;18.04;44.23
3096;BME280;1558;42.700;23.360;2023-04-02T08:19:23;94583.28;;;18.25;45.41
3096;BME280;1558;42.700;23.360;2023-04-02T08:21:52;94581.75;;;18.86;45.67
3096;BME280;1558;42.700;23.360;2023-04-02T08:24:20;94586.06;;;18.84;44.74
3096;BME280;1558;42.700;23.360;2023-04-02T08:26:48;94579.47;;;18.81;45.04
3096;BME280;1558;42.700;23.360;2023-04-02T08:29:17;94554.69;;;19.03;44.08
3096;BME280;1558;42.700;23.360;2023-04-02T08:31:45;94577.56;;;19.67;44.47
3096;BME280;1558;42.700;23.360;2023-04-02T08:34:13;94576.56;;;19.50;44.25
3096;BME280;1558;42.700;23.360;2023-04-02T08:36:43;94571.69;;;19.69;43.52
3096;BME280;1558;42.700;23.360;2023-04-02T08:39:11;94568.97;;;20.36;42.52
3096;BME280;1558;42.700;23.360;2023-04-02T08:41:44;94584.78;;;19.88;41.74
3096;BME280;1558;42.700;23.360;2023-04-02T08:44:31;94582.03;;;19.03;42.98
3096;BME280;1558;42.700;23.360;2023-04-02T08:47:04;94583.16;;;18.50;44.14
3096;BME280;1558;42.700;23.360;2023-04-02T08:49:37;94580.19;;;18.89;43.42
3096;BME280;1558;42.700;23.360;2023-04-02T08:52:18;94586.72;;;18.33;44.49
3096;BME280;1558;42.700;23.360;2023-04-02T08:54:48;94584.19;;;18.74;44.23
3096;BME280;1558;42.700;23.360;2023-04-02T08:57:22;94546.06;;;19.08;43.90
3096;BME280;1558;42.700;23.360;2023-04-02T08:59:55;94584.69;;;19.95;41.99
3096;BME280;1558;42.700;23.360;2023-04-02T09:02:30;94573.75;;;19.95;41.60
3096;BME280;1558;42.700;23.360;2023-04-02T09:05:05;94577.28;;;20.29;41.50
3096;BME280;1558;42.700;23.360;2023-04-02T09:07:35;94533.16;;;20.50;40.02
3096;BME280;1558;42.700;23.360;2023-04-02T09:10:03;94578.09;;;20.83;39.84
3096;BME280;1558;42.700;23.360;2023-04-02T09:12:31;94531.84;;;19.98;40.36
3096;BME280;1558;42.700;23.360;2023-04-02T09:15:09;94567.59;;;21.05;40.51
3096;BME280;1558;42.700;23.360;2023-04-02T09:17:45;94568.34;;;20.52;39.85
3096;BME280;1558;42.700;23.360;2023-04-02T09:20:22;94565.13;;;19.96;40.68
3096;BME280;1558;42.700;23.360;2023-04-02T09:22:55;94543.09;;;19.36;41.51
3096;BME280;1558;42.700;23.360;2023-04-02T09:25:26;94582.38;;;18.50;40.92
3096;BME280;1558;42.700;23.360;2023-04-02T09:27:57;94577.31;;;17.30;43.81
3096;BME280;1558;42.700;23.360;2023-04-02T09:30:36;94582.72;;;16.66;44.99
3096;BME280;1558;42.700;23.360;2023-04-02T09:33:08;94570.69;;;17.10;45.66
3096;BME280;1558;42.700;23.360;2023-04-02T09:35:53;94570.66;;;17.24;45.20
3096;BME280;1558;42.700;23.360;2023-04-02T09:38:24;94571.44;;;16.71;46.09
3096;BME280;1558;42.700;23.360;2023-04-02T09:40:58;94572.91;;;16.26;47.51
3096;BME280;1558;42.700;23.360;2023-04-02T09:43:27;94526.34;;;16.63;47.40
3096;BME280;1558;42.700;23.360;2023-04-02T09:45:58;94566.81;;;16.68;47.19
3096;BME280;1558;42.700;23.360;2023-04-02T09:48:29;94537.13;;;16.21;47.00
3096;BME280;1558;42.700;23.360;2023-04-02T09:51:06;94561.75;;;17.06;46.94
3096;BME280;1558;42.700;23.360;2023-04-02T09:53:40;94558.91;;;17.76;46.47
3096;BME280;1558;42.700;23.360;2023-04-02T09:56:11;94551.69;;;18.21;45.01
3096;BME280;1558;42.700;23.360;2023-04-02T09:58:40;94555.03;;;17.70;43.89
3096;BME280;1558;42.700;23.360;2023-04-02T10:01:28;94561.75;;;16.77;45.55
3096;BME280;1558;42.700;23.360;2023-04-02T10:03:57;94544.59;;;16.52;46.40
3096;BME280;1558;42.700;23.360;2023-04-02T10:06:27;94555.84;;;17.35;46.07
3096;BME280;1558;42.700;23.360;2023-04-02T10:08:57;94558.06;;;17.97;44.47
3096;BME280;1558;42.700;23.360;2023-04-02T10:11:46;94536.50;;;18.82;42.84
3096;BME280;1558;42.700;23.360;2023-04-02T10:14:18;94549.38;;;18.19;42.88
3096;BME280;1558;42.700;23.360;2023-04-02T10:16:51;94544.94;;;17.60;43.91
3096;BME280;1558;42.700;23.360;2023-04-02T10:19:25;94544.44;;;17.86;44.18
3096;BME280;1558;42.700;23.360;2023-04-02T10:21:56;94548.81;;;18.53;43.90
3096;BME280;1558;42.700;23.360;2023-04-02T10:24:28;94531.53;;;19.58;42.06
3096;BME280;1558;42.700;23.360;2023-04-02T10:27:02;94534.09;;;20.06;40.53
3096;BME280;1558;42.700;23.360;2023-04-02T10:32:31;94535.59;;;19.43;42.89
3096;BME280;1558;42.700;23.360;2023-04-02T10:35:04;94538.78;;;20.66;40.70
3096;BME280;1558;42.700;23.360;2023-04-02T10:38:05;94534.56;;;21.12;39.11
3096;BME280;1558;42.700;23.360;2023-04-02T10:40:40;94542.91;;;21.28;38.78
3096;BME280;1558;42.700;23.360;2023-04-02T10:43:33;94536.59;;;20.81;38.93
3096;BME280;1558;42.700;23.360;2023-04-02T10:46:11;94536.19;;;20.82;38.26
3096;BME280;1558;42.700;23.360;2023-04-02T10:48:47;94528.41;;;21.04;37.71
3096;BME280;1558;42.700;23.360;2023-04-02T10:51:28;94528.81;;;19.58;39.09
3096;BME280;1558;42.700;23.360;2023-04-02T10:54:02;94525.75;;;19.09;40.48
3096;BME280;1558;42.700;23.360;2023-04-02T10:56:34;94524.38;;;18.83;40.83
3096;BME280;1558;42.700;23.360;2023-04-02T10:59:18;94519.28;;;20.34;39.61
3096;BME280;1558;42.700;23.360;2023-04-02T11:01:48;94516.34;;;21.25;37.71
3096;BME280;1558;42.700;23.360;2023-04-02T11:04:21;94522.78;;;21.15;37.56
3096;BME280;1558;42.700;23.360;2023-04-02T11:06:54;94513.50;;;21.71;37.95
3096;BME280;1558;42.700;23.360;2023-04-02T11:09:42;94499.97;;;22.03;35.69
3096;BME280;1558;42.700;23.360;2023-04-02T11:12:19;94505.59;;;22.68;36.03
3096;BME280;1558;42.700;23.360;2023-04-02T11:14:49;94511.63;;;23.27;35.13
3096;BME280;1558;42.700;23.360;2023-04-02T11:17:20;94517.97;;;22.60;35.14
3096;BME280;1558;42.700;23.360;2023-04-02T11:19:48;94511.81;;;21.15;36.58
3096;BME280;1558;42.700;23.360;2023-04-02T11:22:17;94509.06;;;21.15;37.16
3096;BME280;1558;42.700;23.360;2023-04-02T11:24:48;94469.13;;;20.10;36.88
3096;BME280;1558;42.700;23.360;2023-04-02T11:27:24;94513.84;;;20.31;37.19
3096;BME280;1558;42.700;23.360;2023-04-02T11:30:00;94514.00;;;20.16;37.69
3096;BME280;1558;42.700;23.360;2023-04-02T11:32:34;94465.63;;;19.05;37.48
3096;BME280;1558;42.700;23.360;2023-04-02T11:35:34;94509.94;;;19.68;37.61
3096;BME280;1558;42.700;23.360;2023-04-02T11:41:04;94508.63;;;20.09;36.84
3096;BME280;1558;42.700;23.360;2023-04-02T11:44:01;94502.50;;;20.32;37.31
3096;BME280;1558;42.700;23.360;2023-04-02T11:46:42;94504.03;;;20.86;36.77
3096;BME280;1558;42.700;23.360;2023-04-02T11:49:39;94485.63;;;20.34;36.27
3096;BME280;1558;42.700;23.360;2023-04-02T11:52:29;94477.72;;;20.89;36.60
3096;BME280;1558;42.700;23.360;2023-04-02T11:58:34;94490.94;;;22.90;34.95
3096;BME280;1558;42.700;23.360;2023-04-02T12:04:39;94495.84;;;20.56;35.54
3096;BME280;1558;42.700;23.360;2023-04-02T12:10:16;94496.44;;;19.84;37.97
3096;BME280;1558;42.700;23.360;2023-04-02T12:12:44;94489.03;;;21.18;36.17
3096;BME280;1558;42.700;23.360;2023-04-02T12:15:35;94486.91;;;19.28;37.33
3096;BME280;1558;42.700;23.360;2023-04-02T12:18:14;94494.72;;;18.26;39.06
3096;BME280;1558;42.700;23.360;2023-04-02T12:20:49;94494.94;;;17.88;39.69
3096;BME280;1558;42.700;23.360;2023-04-02T12:23:19;94482.16;;;17.67;40.37
3096;BME280;1558;42.700;23.360;2023-04-02T12:25:55;94485.50;;;18.65;40.67
3096;BME280;1558;42.700;23.360;2023-04-02T12:28:24;94492.03;;;19.59;38.46
3096;BME280;1558;42.700;23.360;2023-04-02T12:31:10;94492.66;;;19.74;37.57
3096;BME280;1558;42.700;23.360;2023-04-02T12:33:40;94487.59;;;20.03;36.99
3096;BME280;1558;42.700;23.360;2023-04-02T12:36:18;94487.75;;;19.58;36.40
3096;BME280;1558;42.700;23.360;2023-04-02T12:38:51;94480.22;;;19.66;36.51
3096;BME280;1558;42.700;23.360;2023-04-02T12:41:22;94475.63;;;19.59;36.69
3096;BME280;1558;42.700;23.360;2023-04-02T12:43:57;94471.97;;;19.39;37.37
3096;BME280;1558;42.700;23.360;2023-04-02T12:46:26;94445.78;;;19.69;37.49
3096;BME280;1558;42.700;23.360;2023-04-02T12:48:59;94474.72;;;20.30;35.94
3096;BME280;1558;42.700;23.360;2023-04-02T12:51:30;94475.91;;;19.69;36.62
3096;BME280;1558;42.700;23.360;2023-04-02T12:53:58;94472.03;;;19.29;36.77
3096;BME280;1558;42.700;23.360;2023-04-02T12:56:26;94471.72;;;18.79;37.48
3096;BME280;1558;42.700;23.360;2023-04-02T12:58:55;94464.13;;;18.53;38.06
3096;BME280;1558;42.700;23.360;2023-04-02T13:01:25;94479.03;;;18.41;38.09
3096;BME280;1558;42.700;23.360;2023-04-02T13:04:01;94471.44;;;18.08;38.38
3096;BME280;1558;42.700;23.360;2023-04-02T13:06:32;94464.19;;;17.80;39.09
3096;BME280;1558;42.700;23.360;2023-04-02T13:09:03;94465.88;;;17.49;39.34
3096;BME280;1558;42.700;23.360;2023-04-02T13:11:33;94467.81;;;17.49;39.83
3096;BME280;1558;42.700;23.360;2023-04-02T13:14:04;94459.25;;;17.54;39.52
3096;BME280;1558;42.700;23.360;2023-04-02T13:16:34;94462.34;;;17.56;39.41
3096;BME280;1558;42.700;23.360;2023-04-02T13:19:25;94445.59;;;17.61;39.17
3096;BME280;1558;42.700;23.360;2023-04-02T13:21:58;94458.16;;;18.10;39.10
3096;BME280;1558;42.700;23.360;2023-04-02T13:24:29;94456.69;;;17.98;38.72
3096;BME280;1558;42.700;23.360;2023-04-02T13:26:59;94427.28;;;17.47;39.20
3096;BME280;1558;42.700;23.360;2023-04-02T13:29:28;94459.81;;;17.97;38.88
3096;BME280;1558;42.700;23.360;2023-04-02T13:31:58;94455.13;;;17.97;38.79
3096;BME280;1558;42.700;23.360;2023-04-02T13:34:27;94391.34;;;17.74;38.81
3096;BME280;1558;42.700;23.360;2023-04-02T13:36:56;94437.16;;;18.03;38.35
3096;BME280;1558;42.700;23.360;2023-04-02T13:39:25;94423.69;;;17.75;38.44
3096;BME280;1558;42.700;23.360;2023-04-02T13:41:57;94429.47;;;17.84;38.22
3096;BME280;1558;42.700;23.360;2023-04-02T13:44:27;94430.97;;;17.99;37.40
3096;BME280;1558;42.700;23.360;2023-04-02T13:46:56;94446.00;;;17.45;37.84
3096;BME280;1558;42.700;23.360;2023-04-02T13:49:25;94446.41;;;17.40;38.33
3096;BME280;1558;42.700;23.360;2023-04-02T13:51:58;94448.38;;;17.40;37.79
3096;BME280;1558;42.700;23.360;2023-04-02T13:54:31;94437.44;;;17.47;38.08
3096;BME280;1558;42.700;23.360;2023-04-02T13:57:00;94437.41;;;17.50;37.54
3096;BME280;1558;42.700;23.360;2023-04-02T13:59:28;94439.72;;;17.66;37.70
3096;BME280;1558;42.700;23.360;2023-04-02T14:02:00;94445.59;;;17.61;37.41